Time;durP1;ratioP1;P1;durP2;ratioP2;P2;SDS_P1;SDS_P2;PMS_P1;PMS_P2;Temp;Humidity;BMP_temperature;BMP_pressure;BME280_temperature;BME280_humidity;BME280_pressure;Samples;Min_cycle;Max_cycle;Signal;HPM_P1;HPM_P2
2023/03/05 00:01:08;;;;;;;;;;;;;;;22.78;30.83;94630.31;5052478;28;1196;-73
2023/03/05 00:03:34;;;;;;;;;;;;;;;22.77;30.74;94632.19;5053534;28;1246;-73
2023/03/05 00:05:59;;;;;;;;;;;;;;;22.78;30.85;94620.44;5052351;28;1959;-72
2023/03/05 00:08:24;;;;;;;;;;;;;;;22.79;30.62;94622.06;5047754;28;1294;-73
2023/03/05 00:10:59;;;;;;;;;;;;;;;22.78;30.79;94625.78;5048323;28;1198;-73
2023/03/05 00:13:25;;;;;;;;;;;;;;;22.77;30.76;94626.00;5053667;28;874;-73
2023/03/05 00:15:50;;;;;;;;;;;;;;;22.78;30.69;94622.28;5053846;28;842;-73
2023/03/05 00:18:15;;;;;;;;;;;;;;;22.77;30.87;94617.97;5053508;28;854;-73
2023/03/05 00:20:41;;;;;;;;;;;;;;;22.77;30.84;94618.81;5043807;28;1096;-73
2023/03/05 00:23:06;;;;;;;;;;;;;;;22.78;30.65;94619.63;5053289;28;1200;-73
2023/03/05 00:25:33;;;;;;;;;;;;;;;22.79;30.63;94613.22;5053342;28;1910;-72
2023/03/05 00:27:59;;;;;;;;;;;;;;;22.78;30.82;94608.94;5052030;28;1200;-74
2023/03/05 00:30:24;;;;;;;;;;;;;;;22.79;30.66;94607.88;5052110;28;1311;-73
2023/03/05 00:32:49;;;;;;;;;;;;;;;22.78;30.75;94608.94;5024955;28;1641;-73
2023/03/05 00:35:14;;;;;;;;;;;;;;;22.80;30.71;94604.16;5053456;28;878;-73
2023/03/05 00:37:40;;;;;;;;;;;;;;;22.79;30.69;94599.84;5051307;28;1166;-73
2023/03/05 00:40:05;;;;;;;;;;;;;;;22.80;30.68;94596.16;5053196;28;898;-73
2023/03/05 00:42:32;;;;;;;;;;;;;;;22.80;30.70;94596.16;5048269;28;1194;-74
2023/03/05 00:44:57;;;;;;;;;;;;;;;22.79;30.81;94597.19;5047667;28;1971;-73
2023/03/05 00:47:23;;;;;;;;;;;;;;;22.80;30.65;94593.47;5035207;28;1399;-73
2023/03/05 00:49:48;;;;;;;;;;;;;;;22.80;30.68;94585.44;5035165;28;1199;-73
2023/03/05 00:52:13;;;;;;;;;;;;;;;22.78;30.87;94592.88;5052836;28;968;-73
2023/03/05 00:54:38;;;;;;;;;;;;;;;22.79;30.92;94589.97;5043104;28;1024;-73
2023/03/05 00:57:04;;;;;;;;;;;;;;;22.79;30.74;94583.81;5050875;28;1157;-73
2023/03/05 00:59:30;;;;;;;;;;;;;;;22.77;31.02;94581.38;5050852;28;1216;-73
2023/03/05 01:01:55;;;;;;;;;;;;;;;22.79;30.70;94583.81;5052922;28;822;-73
2023/03/05 01:04:20;;;;;;;;;;;;;;;22.78;30.80;94577.66;5052588;28;1930;-73
2023/03/05 01:06:46;;;;;;;;;;;;;;;22.77;30.64;94575.19;5041564;28;1424;-73
2023/03/05 01:09:11;;;;;;;;;;;;;;;22.79;30.82;94576.59;5051489;28;1211;-73
2023/03/05 01:11:36;;;;;;;;;;;;;;;22.79;30.74;94573.09;5051402;28;1157;-73
2023/03/05 01:14:02;;;;;;;;;;;;;;;22.77;30.77;94562.66;5052629;28;815;-73
2023/03/05 01:16:27;;;;;;;;;;;;;;;22.78;30.89;94568.81;5048636;28;1033;-72
2023/03/05 01:18:52;;;;;;;;;;;;;;;22.80;30.75;94574.75;5028699;28;1291;-73
2023/03/05 01:21:17;;;;;;;;;;;;;;;22.81;30.81;94568.34;5052905;28;896;-73
2023/03/05 01:23:43;;;;;;;;;;;;;;;22.81;30.64;94568.34;5051329;28;1183;-72
2023/03/05 01:26:08;;;;;;;;;;;;;;;22.81;30.71;94560.31;5052462;28;1961;-73
2023/03/05 01:28:34;;;;;;;;;;;;;;;22.80;30.65;94564.06;5024792;28;1216;-73
2023/03/05 01:30:59;;;;;;;;;;;;;;;22.78;30.92;94555.44;5050896;28;1199;-73
2023/03/05 01:33:24;;;;;;;;;;;;;;;22.76;30.70;94558.34;5052457;28;865;-73
2023/03/05 01:35:50;;;;;;;;;;;;;;;22.76;30.69;94558.34;5052424;28;941;-73
2023/03/05 01:38:16;;;;;;;;;;;;;;;22.79;30.74;94554.38;5052437;28;955;-73
2023/03/05 01:40:42;;;;;;;;;;;;;;;22.80;30.68;94564.88;5040920;28;1344;-73
2023/03/05 01:43:10;;;;;;;;;;;;;;;22.79;30.81;94557.06;5052346;28;853;-73
2023/03/05 01:45:36;;;;;;;;;;;;;;;22.79;30.74;94557.88;5052324;28;1906;-73
2023/03/05 01:48:02;;;;;;;;;;;;;;;22.79;30.85;94557.88;5052341;28;950;-73
2023/03/05 01:50:27;;;;;;;;;;;;;;;22.79;30.78;94559.72;5049868;28;916;-73
2023/03/05 01:53:01;;;;;;;;;;;;;;;22.79;30.80;94562.41;5044606;28;990;-73
2023/03/05 01:55:28;;;;;;;;;;;;;;;22.78;30.71;94553.56;5050955;28;1077;-73
2023/03/05 01:57:59;;;;;;;;;;;;;;;22.79;30.61;94559.72;5052237;28;890;-73
2023/03/05 02:00:26;;;;;;;;;;;;;;;22.77;30.82;94561.81;5052171;28;822;-73
2023/03/05 02:02:52;;;;;;;;;;;;;;;22.78;30.67;94561.59;5042219;28;1188;-73
2023/03/05 02:05:19;;;;;;;;;;;;;;;22.81;30.82;94571.03;5051769;28;1906;-72
2023/03/05 02:07:44;;;;;;;;;;;;;;;22.82;30.57;94561.94;5050934;28;1191;-73
2023/03/05 02:10:31;;;;;;;;;;;;;;;22.80;30.58;94561.38;5052873;28;893;-73
2023/03/05 02:12:58;;;;;;;;;;;;;;;22.78;30.78;94560.78;5054638;28;1327;-73
2023/03/05 02:15:24;;;;;;;;;;;;;;;22.80;30.66;94559.53;5045778;28;963;-73
2023/03/05 02:17:49;;;;;;;;;;;;;;;22.79;30.88;94560.53;5055812;28;914;-73
2023/03/05 02:20:19;;;;;;;;;;;;;;;22.79;30.64;94565.09;5038018;28;1456;-75
2023/03/05 02:22:45;;;;;;;;;;;;;;;22.81;30.78;94561.13;5054551;28;1176;-74
2023/03/05 02:25:13;;;;;;;;;;;;;;;22.83;30.76;94563.59;5047832;28;1897;-74
2023/03/05 02:27:39;;;;;;;;;;;;;;;22.80;30.70;94559.53;5035654;28;1402;-74
2023/03/05 02:30:05;;;;;;;;;;;;;;;22.80;30.79;94564.88;5055896;28;929;-73
2023/03/05 02:32:31;;;;;;;;;;;;;;;22.83;30.75;94558.25;5055724;28;862;-74
2023/03/05 02:34:56;;;;;;;;;;;;;;;22.82;30.60;94561.94;5055648;28;898;-72
2023/03/05 02:37:21;;;;;;;;;;;;;;;22.81;30.66;94563.81;5045520;28;1055;-74
2023/03/05 02:39:47;;;;;;;;;;;;;;;22.80;30.76;94562.19;5054357;28;1252;-73
2023/03/05 02:42:12;;;;;;;;;;;;;;;22.80;30.85;94559.53;5055881;28;905;-76
2023/03/05 02:44:37;;;;;;;;;;;;;;;22.79;30.71;94568.56;5053584;28;1906;-76
2023/03/05 02:47:02;;;;;;;;;;;;;;;22.81;30.57;94565.69;5054106;28;1327;-77
2023/03/05 02:49:28;;;;;;;;;;;;;;;22.80;30.58;94564.06;5045543;28;1275;-77
2023/03/05 02:51:53;;;;;;;;;;;;;;;22.80;30.91;94564.06;5054131;28;1295;-77
2023/03/05 02:54:19;;;;;;;;;;;;;;;22.79;30.67;94571.25;5055194;28;914;-76
2023/03/05 02:56:44;;;;;;;;;;;;;;;22.79;30.67;94570.44;5053894;28;1340;-76
2023/03/05 02:59:09;;;;;;;;;;;;;;;22.80;30.75;94561.38;5049225;28;1674;-76
2023/03/05 03:01:34;;;;;;;;;;;;;;;22.81;30.65;94563.81;5048860;28;1336;-76
2023/03/05 03:04:00;;;;;;;;;;;;;;;22.81;30.67;94563.00;5054973;28;1918;-76
2023/03/05 03:06:25;;;;;;;;;;;;;;;22.80;30.73;94558.72;5037409;28;1274;-76
2023/03/05 03:08:50;;;;;;;;;;;;;;;22.78;30.68;94556.25;5055247;28;866;-76
2023/03/05 03:11:16;;;;;;;;;;;;;;;22.79;30.77;94555.19;5044969;28;1075;-76
2023/03/05 03:13:41;;;;;;;;;;;;;;;22.81;30.86;94554.97;5037047;28;1294;-77
2023/03/05 03:16:09;;;;;;;;;;;;;;;22.81;30.75;94560.31;5053585;28;1325;-77
2023/03/05 03:18:34;;;;;;;;;;;;;;;22.83;30.82;94563.59;5054768;28;889;-77
2023/03/05 03:21:00;;;;;;;;;;;;;;;22.81;30.76;94563.81;5054611;28;842;-76
2023/03/05 03:23:25;;;;;;;;;;;;;;;22.83;30.72;94563.59;5043837;28;1064;-76
2023/03/05 03:25:50;;;;;;;;;;;;;;;22.81;30.58;94566.50;5054634;28;1898;-77
2023/03/05 03:28:16;;;;;;;;;;;;;;;22.79;30.77;94562.41;5054696;28;872;-77
2023/03/05 03:30:41;;;;;;;;;;;;;;;22.78;30.64;94558.94;5054610;28;867;-76
2023/03/05 03:33:07;;;;;;;;;;;;;;;22.81;30.75;94560.31;5032132;28;1203;-76
2023/03/05 03:35:32;;;;;;;;;;;;;;;22.81;30.75;94561.13;5048462;28;1400;-77
2023/03/05 03:37:57;;;;;;;;;;;;;;;22.81;30.75;94557.66;5053062;28;1082;-77
2023/03/05 03:40:22;;;;;;;;;;;;;;;22.80;30.68;94554.16;5053045;28;1328;-76
2023/03/05 03:42:50;;;;;;;;;;;;;;;22.81;30.75;94546.97;5054373;28;886;-77
2023/03/05 03:45:15;;;;;;;;;;;;;;;22.81;30.67;94554.97;5042835;28;1898;-77
2023/03/05 03:47:40;;;;;;;;;;;;;;;22.82;30.67;94553.94;5052959;28;1347;-77
2023/03/05 03:50:06;;;;;;;;;;;;;;;22.80;30.79;94553.34;5036331;28;1337;-77
2023/03/05 03:52:31;;;;;;;;;;;;;;;22.81;30.79;94544.28;5054191;28;810;-77
2023/03/05 03:55:00;;;;;;;;;;;;;;;22.80;30.55;94548.00;5054116;28;908;-76
2023/03/05 03:57:26;;;;;;;;;;;;;;;22.79;30.80;94544.50;5043936;28;1008;-77
2023/03/05 03:59:51;;;;;;;;;;;;;;;22.80;30.83;94556.03;5052707;28;1163;-77
2023/03/05 04:02:17;;;;;;;;;;;;;;;22.80;30.75;94564.88;5054189;28;887;-76
2023/03/05 04:04:42;;;;;;;;;;;;;;;22.79;30.69;94559.72;5052361;28;1961;-76
2023/03/05 04:07:08;;;;;;;;;;;;;;;22.78;30.94;94566.94;5031223;28;1187;-76
2023/03/05 04:09:33;;;;;;;;;;;;;;;22.81;30.68;94560.31;5048536;28;1223;-76
2023/03/05 04:11:58;;;;;;;;;;;;;;;22.81;30.79;94563.00;5053809;28;850;-77
2023/03/05 04:14:25;;;;;;;;;;;;;;;22.82;30.81;94572.66;5035458;28;1363;-77
2023/03/05 04:16:50;;;;;;;;;;;;;;;22.81;30.64;94563.81;5053840;28;846;-77
2023/03/05 04:19:16;;;;;;;;;;;;;;;22.82;30.82;94561.94;5042165;28;1642;-77
2023/03/05 04:21:41;;;;;;;;;;;;;;;22.82;31.00;94568.09;5052151;28;1442;-77
2023/03/05 04:24:07;;;;;;;;;;;;;;;22.82;30.64;94567.28;5053332;28;1934;-77
2023/03/05 04:26:32;;;;;;;;;;;;;;;22.81;30.63;94558.47;5053437;28;899;-76
2023/03/05 04:28:57;;;;;;;;;;;;;;;22.83;30.63;94561.72;5053363;28;941;-76
2023/03/05 04:31:23;;;;;;;;;;;;;;;22.82;30.57;94562.75;5043225;28;1053;-76
2023/03/05 04:33:48;;;;;;;;;;;;;;;22.82;30.64;94551.25;5035618;28;1291;-76
2023/03/05 04:36:13;;;;;;;;;;;;;;;22.82;30.74;94556.59;5053188;28;843;-77
2023/03/05 04:38:39;;;;;;;;;;;;;;;22.81;30.68;94546.97;5053184;28;867;-76
2023/03/05 04:41:04;;;;;;;;;;;;;;;22.81;30.78;94553.13;5048371;28;1059;-75
2023/03/05 04:43:29;;;;;;;;;;;;;;;22.83;30.73;94552.91;5048124;28;1312;-76
2023/03/05 04:45:55;;;;;;;;;;;;;;;22.82;30.67;94545.91;5035167;28;1898;-75
2023/03/05 04:48:20;;;;;;;;;;;;;;;22.82;30.84;94549.38;5035256;28;1310;-75
2023/03/05 04:50:45;;;;;;;;;;;;;;;22.84;30.72;94551.84;5052956;28;894;-76
2023/03/05 04:53:10;;;;;;;;;;;;;;;22.81;30.73;94547.75;5043010;28;1079;-76
2023/03/05 04:55:36;;;;;;;;;;;;;;;22.80;30.84;94550.69;5034879;28;1225;-76
2023/03/05 04:58:01;;;;;;;;;;;;;;;22.80;30.66;94542.66;5052839;28;847;-77
2023/03/05 05:00:26;;;;;;;;;;;;;;;22.82;30.81;94553.94;5053326;28;810;-77
2023/03/05 05:02:52;;;;;;;;;;;;;;;22.82;30.68;94549.38;5051800;28;1235;-77
2023/03/05 05:05:22;;;;;;;;;;;;;;;22.80;30.50;94551.50;5024986;28;1989;-76
2023/03/05 05:07:47;;;;;;;;;;;;;;;22.81;30.61;94554.97;5034976;28;1518;-76
2023/03/05 05:10:13;;;;;;;;;;;;;;;22.83;30.55;94552.91;5052999;28;897;-77
2023/03/05 05:12:38;;;;;;;;;;;;;;;22.81;30.71;94557.66;5051593;28;1156;-77
2023/03/05 05:15:05;;;;;;;;;;;;;;;22.80;30.79;94556.84;5046605;28;1209;-77
2023/03/05 05:17:31;;;;;;;;;;;;;;;22.81;30.81;94563.00;5047510;28;1179;-77
2023/03/05 05:19:57;;;;;;;;;;;;;;;22.81;30.57;94557.66;5051378;28;1383;-76
2023/03/05 05:22:22;;;;;;;;;;;;;;;22.81;30.94;94563.00;5052663;28;1028;-76
2023/03/05 05:24:48;;;;;;;;;;;;;;;22.83;30.62;94563.59;5052511;28;1969;-77
2023/03/05 05:27:13;;;;;;;;;;;;;;;22.82;30.57;94561.94;5042737;28;1192;-77
2023/03/05 05:29:39;;;;;;;;;;;;;;;22.83;30.67;94563.59;5050954;28;1333;-76
2023/03/05 05:32:04;;;;;;;;;;;;;;;22.83;30.54;94568.94;5069287;28;921;-76
2023/03/05 05:34:29;;;;;;;;;;;;;;;22.85;30.67;94566.84;5054475;28;1410;-76
2023/03/05 05:36:55;;;;;;;;;;;;;;;22.82;30.76;94567.28;5072527;28;873;-77
2023/03/05 05:39:20;;;;;;;;;;;;;;;22.82;30.58;94573.44;5062406;28;1067;-77
2023/03/05 05:41:49;;;;;;;;;;;;;;;22.84;30.51;94571.38;5054475;28;1194;-77
2023/03/05 05:44:14;;;;;;;;;;;;;;;22.85;30.76;94577.53;5054432;28;1965;-77
2023/03/05 05:46:39;;;;;;;;;;;;;;;22.83;30.53;94580.44;5057206;28;1349;-76
2023/03/05 05:49:04;;;;;;;;;;;;;;;22.85;30.70;94578.38;5071690;28;1046;-76
2023/03/05 05:51:30;;;;;;;;;;;;;;;22.83;30.56;94575.09;5071036;28;1209;-76
2023/03/05 05:53:55;;;;;;;;;;;;;;;22.82;30.56;94586.81;5076284;28;913;-76
2023/03/05 05:56:20;;;;;;;;;;;;;;;22.81;30.75;94587.06;5076907;28;889;-77
2023/03/05 05:58:47;;;;;;;;;;;;;;;22.83;30.75;94590.34;5077540;28;794;-77
2023/03/05 06:01:12;;;;;;;;;;;;;;;22.83;30.62;94591.16;5049671;28;1355;-76
2023/03/05 06:03:37;;;;;;;;;;;;;;;22.84;30.83;94591.97;5075757;28;1305;-76
2023/03/05 06:06:06;;;;;;;;;;;;;;;22.82;30.82;94594.03;5058595;28;1898;-76
2023/03/05 06:08:32;;;;;;;;;;;;;;;22.84;30.60;94595.44;5076266;28;877;-76
2023/03/05 06:10:57;;;;;;;;;;;;;;;22.83;30.68;94595.69;5076273;28;869;-76
2023/03/05 06:13:22;;;;;;;;;;;;;;;22.85;30.73;94597.09;5066487;28;1012;-76
2023/03/05 06:15:55;;;;;;;;;;;;;;;22.84;30.52;94592.78;5058216;28;1257;-77
2023/03/05 06:18:20;;;;;;;;;;;;;;;22.87;30.74;94604.88;5076398;28;878;-78
2023/03/05 06:20:52;;;;;;;;;;;;;;;22.86;30.75;94606.72;5076197;28;903;-77
2023/03/05 06:23:17;;;;;;;;;;;;;;;22.87;30.49;94603.00;5053045;28;1290;-77
2023/03/05 06:25:43;;;;;;;;;;;;;;;22.86;30.57;94605.94;5052533;28;1894;-78
2023/03/05 06:28:08;;;;;;;;;;;;;;;22.85;30.58;94604.28;5076074;28;897;-78
2023/03/05 06:30:33;;;;;;;;;;;;;;;22.85;30.61;94610.47;5057984;28;1306;-79
2023/03/05 06:32:58;;;;;;;;;;;;;;;22.87;30.55;94607.53;5076096;28;893;-79
2023/03/05 06:35:24;;;;;;;;;;;;;;;22.86;30.75;94612.09;5048476;28;1153;-80
2023/03/05 06:37:49;;;;;;;;;;;;;;;22.86;30.71;94603.25;5075975;28;1139;-79
2023/03/05 06:40:14;;;;;;;;;;;;;;;22.86;30.59;94606.72;5057851;28;1183;-79
2023/03/05 06:42:40;;;;;;;;;;;;;;;22.88;30.49;94611.84;5057515;28;1187;-80
2023/03/05 06:45:05;;;;;;;;;;;;;;;22.89;30.61;94605.47;5075565;28;1893;-79
2023/03/05 06:47:31;;;;;;;;;;;;;;;22.89;30.81;94610.81;5065832;28;1037;-79
2023/03/05 06:49:56;;;;;;;;;;;;;;;22.91;30.66;94606.06;5075613;28;856;-80
2023/03/05 06:52:22;;;;;;;;;;;;;;;22.93;30.47;94606.63;5075974;28;819;-79
2023/03/05 06:54:47;;;;;;;;;;;;;;;22.96;30.56;94616.09;5057419;28;1680;-79
2023/03/05 06:57:12;;;;;;;;;;;;;;;22.95;30.58;94609.09;5069964;28;947;-81
2023/03/05 06:59:38;;;;;;;;;;;;;;;22.94;30.57;94616.28;5069997;28;1016;-77
2023/03/05 07:02:03;;;;;;;;;;;;;;;22.96;30.43;94610.72;5057258;28;1223;-76
2023/03/05 07:04:28;;;;;;;;;;;;;;;22.96;30.59;94606.19;5074682;28;1901;-77
2023/03/05 07:06:54;;;;;;;;;;;;;;;22.97;30.55;94612.34;5075069;28;814;-77
2023/03/05 07:09:20;;;;;;;;;;;;;;;22.98;30.45;94612.13;5065133;28;1063;-77
2023/03/05 07:11:45;;;;;;;;;;;;;;;22.98;30.59;94611.31;5074716;28;1044;-77
2023/03/05 07:14:11;;;;;;;;;;;;;;;22.97;30.44;94618.53;5074599;28;819;-77
2023/03/05 07:16:36;;;;;;;;;;;;;;;22.97;30.51;94623.88;5056824;28;1243;-77
2023/03/05 07:19:03;;;;;;;;;;;;;;;22.96;30.53;94616.88;5056872;28;1286;-77
2023/03/05 07:21:30;;;;;;;;;;;;;;;23.00;30.50;94617.28;5064619;28;1061;-77
2023/03/05 07:23:56;;;;;;;;;;;;;;;23.02;30.54;94618.63;5056773;28;1354;-77
2023/03/05 07:26:22;;;;;;;;;;;;;;;23.01;30.31;94625.03;5074940;28;1902;-79
2023/03/05 07:28:47;;;;;;;;;;;;;;;23.03;30.53;94622.16;5075124;28;846;-78
2023/03/05 07:31:14;;;;;;;;;;;;;;;23.02;30.38;94618.63;5071786;28;909;-79
2023/03/05 07:33:39;;;;;;;;;;;;;;;23.02;30.58;94610.63;5051513;28;1334;-79
2023/03/05 07:36:08;;;;;;;;;;;;;;;22.99;30.63;94616.44;5057344;28;1299;-78
2023/03/05 07:38:34;;;;;;;;;;;;;;;22.97;30.67;94615.88;5056471;28;1240;-78
2023/03/05 07:41:03;;;;;;;;;;;;;;;23.01;30.48;94618.88;5074837;28;905;-79
2023/03/05 07:43:28;;;;;;;;;;;;;;;23.01;30.46;94617.03;5065470;28;1030;-80
2023/03/05 07:45:54;;;;;;;;;;;;;;;23.02;30.57;94626.66;5074797;28;1889;-79
2023/03/05 07:48:19;;;;;;;;;;;;;;;23.01;30.52;94619.69;5040410;28;1307;-79
2023/03/05 07:50:45;;;;;;;;;;;;;;;23.00;30.50;94619.94;5056689;28;1311;-80
2023/03/05 07:53:11;;;;;;;;;;;;;;;23.00;30.39;94617.28;5057124;28;1212;-79
2023/03/05 07:55:43;;;;;;;;;;;;;;;23.00;30.48;94620.75;5048106;28;1204;-79
2023/03/05 07:58:08;;;;;;;;;;;;;;;23.00;30.54;94628.78;5057035;28;1279;-80
2023/03/05 08:00:34;;;;;;;;;;;;;;;22.98;30.36;94622.03;5057326;28;1211;-80
2023/03/05 08:02:59;;;;;;;;;;;;;;;22.98;30.52;94625.50;5074695;28;1262;-79
2023/03/05 08:05:24;;;;;;;;;;;;;;;22.98;30.33;94619.34;5069705;28;1894;-77
2023/03/05 08:07:50;;;;;;;;;;;;;;;22.97;30.63;94621.22;5051290;28;1548;-79
2023/03/05 08:10:15;;;;;;;;;;;;;;;22.96;30.44;94616.88;5056462;28;1323;-78
2023/03/05 08:12:41;;;;;;;;;;;;;;;22.95;30.59;94622.47;5074543;28;885;-78
2023/03/05 08:15:06;;;;;;;;;;;;;;;22.94;30.64;94618.13;5074726;28;953;-79
2023/03/05 08:17:32;;;;;;;;;;;;;;;22.93;30.59;94616.50;5064666;28;1086;-79
2023/03/05 08:19:59;;;;;;;;;;;;;;;22.92;30.60;94620.25;5056473;28;1322;-79
2023/03/05 08:22:24;;;;;;;;;;;;;;;22.92;30.46;94614.88;5074351;28;811;-79
2023/03/05 08:24:50;;;;;;;;;;;;;;;22.88;30.68;94615.34;5055667;28;1968;-79
2023/03/05 08:27:16;;;;;;;;;;;;;;;22.86;30.71;94616.63;5074321;28;814;-78
2023/03/05 08:29:41;;;;;;;;;;;;;;;22.85;30.54;94615.81;5063519;28;1060;-79
2023/03/05 08:32:07;;;;;;;;;;;;;;;22.85;30.79;94618.50;5074108;28;865;-79
2023/03/05 08:34:32;;;;;;;;;;;;;;;22.84;30.81;94613.34;5055933;28;1199;-80
2023/03/05 08:36:57;;;;;;;;;;;;;;;22.84;30.70;94616.03;5074093;28;802;-80
2023/03/05 08:39:22;;;;;;;;;;;;;;;22.83;30.63;94609.06;5070512;28;861;-80
2023/03/05 08:41:48;;;;;;;;;;;;;;;22.82;30.71;94608.22;5050247;28;1335;-80
2023/03/05 08:44:13;;;;;;;;;;;;;;;22.82;30.91;94605.53;5073885;28;1965;-80
2023/03/05 08:46:39;;;;;;;;;;;;;;;22.83;30.79;94603.72;5056143;28;1308;-80
2023/03/05 08:49:06;;;;;;;;;;;;;;;22.83;30.78;94598.38;5074004;28;897;-80
2023/03/05 08:51:32;;;;;;;;;;;;;;;22.81;30.78;94598.56;5064055;28;967;-80
2023/03/05 08:53:58;;;;;;;;;;;;;;;22.81;30.59;94597.78;5073660;28;1161;-79
2023/03/05 08:56:26;;;;;;;;;;;;;;;22.79;30.81;94589.97;5073720;28;814;-78
2023/03/05 08:58:51;;;;;;;;;;;;;;;22.78;30.82;94587.53;5055637;28;1286;-80
2023/03/05 09:01:17;;;;;;;;;;;;;;;22.78;30.81;94584.84;5073744;28;858;-80
2023/03/05 09:03:42;;;;;;;;;;;;;;;22.78;30.59;94583.00;5063447;28;1262;-79
2023/03/05 09:06:08;;;;;;;;;;;;;;;22.78;30.67;94577.66;5073619;28;1902;-79
2023/03/05 09:08:34;;;;;;;;;;;;;;;22.76;30.78;94576.25;5073602;28;891;-78
2023/03/05 09:11:04;;;;;;;;;;;;;;;22.76;30.90;94573.56;5055353;28;1164;-79
2023/03/05 09:13:30;;;;;;;;;;;;;;;22.75;30.97;94571.94;5050808;28;1419;-79
2023/03/05 09:15:59;;;;;;;;;;;;;;;22.75;30.69;94578.09;5049519;28;1293;-79
2023/03/05 09:18:25;;;;;;;;;;;;;;;22.76;30.67;94570.91;5055382;28;1233;-79
2023/03/05 09:20:51;;;;;;;;;;;;;;;22.76;30.72;94569.03;5072561;28;910;-80
2023/03/05 09:23:16;;;;;;;;;;;;;;;22.62;30.69;94547.03;5055852;28;1453;-79
2023/03/05 09:25:41;;;;;;;;;;;;;;;22.74;30.77;94563.13;5063033;28;1941;-78
2023/03/05 09:28:07;;;;;;;;;;;;;;;22.51;27.77;94566.53;5042003;28;1259;-74
2023/03/05 09:30:33;;;;;;;;;;;;;;;21.99;26.87;94564.31;5060183;28;1357;-79
2023/03/05 09:32:59;;;;;;;;;;;;;;;21.76;26.44;94565.03;5048542;28;1408;-80
2023/03/05 09:35:25;;;;;;;;;;;;;;;21.58;26.33;94562.38;5066909;28;1181;-81
2023/03/05 09:37:51;;;;;;;;;;;;;;;21.49;26.11;94561.84;5063245;28;1118;-80
2023/03/05 09:40:18;;;;;;;;;;;;;;;21.34;25.70;94564.00;5055639;28;1307;-82
2023/03/05 09:42:46;;;;;;;;;;;;;;;21.25;26.03;94557.34;5055285;28;1196;-76
2023/03/05 09:45:24;;;;;;;;;;;;;;;21.27;25.69;94555.28;5054860;28;1890;-74
2023/03/05 09:47:49;;;;;;;;;;;;;;;21.21;25.52;94551.63;5050717;28;1380;-77
2023/03/05 09:50:30;;;;;;;;;;;;;;;21.02;25.44;94541.97;5064598;28;1219;-79
2023/03/05 09:52:58;;;;;;;;;;;;;;;20.94;24.83;94553.72;5054152;28;1247;-78
2023/03/05 09:55:41;;;;;;;;;;;;;;;21.02;25.84;94536.63;5078021;28;1399;-71
2023/03/05 09:58:13;;;;;;;;;;;;;;;21.29;26.28;94538.00;5050750;28;1296;-80
2023/03/05 10:00:40;;;;;;;;;;;;;;;21.37;25.77;94544.13;5044992;28;1341;-79
2023/03/05 10:03:11;;;;;;;;;;;;;;;21.38;25.72;94535.09;5064534;28;1388;-79
2023/03/05 10:05:48;;;;;;;;;;;;;;;21.39;25.36;94532.19;5070242;28;1985;-79
2023/03/05 10:08:15;;;;;;;;;;;;;;;21.37;25.53;94528.09;5071461;28;1125;-80
2023/03/05 10:10:46;;;;;;;;;;;;;;;21.34;25.63;94530.16;5050371;28;1423;-78
2023/03/05 10:13:23;;;;;;;;;;;;;;;21.37;25.28;94522.78;5048829;28;1285;-78
2023/03/05 10:16:18;;;;;;;;;;;;;;;21.32;25.22;94523.41;5065563;28;1203;-79
2023/03/05 10:18:59;;;;;;;;;;;;;;;21.27;25.02;94509.94;5050409;28;1191;-80
2023/03/05 10:21:42;;;;;;;;;;;;;;;21.25;25.06;94510.13;5062912;28;1333;-83
2023/03/05 10:24:26;;;;;;;;;;;;;;;21.24;24.52;94510.38;5051799;28;1454;-83
2023/03/05 10:26:51;;;;;;;;;;;;;;;21.15;24.78;94504.50;5052238;28;1324;-82
2023/03/05 10:29:19;;;;;;;;;;;;;;;21.11;24.55;94500.63;5090256;28;1369;-81
2023/03/05 10:32:20;;;;;;;;;;;;;;;21.05;24.53;94498.84;5061031;28;1372;-79
2023/03/05 10:35:20;;;;;;;;;;;;;;;21.00;24.35;94493.38;4972426;28;1368;-79
2023/03/05 10:37:57;;;;;;;;;;;;;;;20.89;23.89;94484.25;4986620;28;1405;-80
2023/03/05 10:40:31;;;;;;;;;;;;;;;20.81;24.01;94480.03;5059563;28;1224;-81
2023/03/05 10:43:11;;;;;;;;;;;;;;;20.78;24.08;94477.81;5076995;28;1268;-80
2023/03/05 10:45:41;;;;;;;;;;;;;;;20.75;23.92;94477.41;5049077;28;1903;-80
2023/03/05 10:48:13;;;;;;;;;;;;;;;20.67;23.64;94482.00;5072823;28;1265;-81
2023/03/05 10:50:44;;;;;;;;;;;;;;;20.64;23.71;94476.28;5075501;28;1395;-81
2023/03/05 10:53:17;;;;;;;;;;;;;;;20.65;23.98;94467.25;5058901;28;1191;-80
2023/03/05 10:55:43;;;;;;;;;;;;;;;20.61;23.80;94463.41;5054708;28;1374;-80
2023/03/05 10:58:12;;;;;;;;;;;;;;;20.59;23.93;94458.28;5052240;28;1343;-81
2023/03/05 11:00:38;;;;;;;;;;;;;;;20.57;23.83;94451.53;5069108;28;1404;-80
2023/03/05 11:03:09;;;;;;;;;;;;;;;20.52;23.57;94451.34;5064482;28;1302;-80
2023/03/05 11:05:38;;;;;;;;;;;;;;;20.53;23.72;94453.03;5047660;28;1985;-80
2023/03/05 11:08:22;;;;;;;;;;;;;;;20.56;24.00;94452.59;5055375;28;1407;-80
2023/03/05 11:11:00;;;;;;;;;;;;;;;20.56;23.94;94442.72;5066449;28;1289;-80
2023/03/05 11:13:26;;;;;;;;;;;;;;;20.57;24.06;94435.53;5057022;28;1299;-80
2023/03/05 11:16:02;;;;;;;;;;;;;;;20.55;23.46;94437.59;5056790;28;1136;-80
2023/03/05 11:18:33;;;;;;;;;;;;;;;20.46;23.58;94423.72;5035924;28;1266;-80
2023/03/05 11:21:26;;;;;;;;;;;;;;;20.41;23.24;94423.59;5057386;28;1378;-80
2023/03/05 11:24:12;;;;;;;;;;;;;;;20.42;23.76;94423.34;5054914;28;1503;-79
2023/03/05 11:26:44;;;;;;;;;;;;;;;20.50;23.63;94424.13;5056956;28;1903;-77
2023/03/05 11:29:15;;;;;;;;;;;;;;;20.45;23.71;94420.25;5058971;28;1428;-81
2023/03/05 11:31:41;;;;;;;;;;;;;;;20.29;24.22;94410.16;5046375;28;1126;-80
2023/03/05 11:34:29;;;;;;;;;;;;;;;20.06;24.69;94409.91;5054509;28;1210;-80
2023/03/05 11:36:54;;;;;;;;;;;;;;;20.02;25.02;94408.75;5061984;28;1278;-81
2023/03/05 11:39:21;;;;;;;;;;;;;;;20.37;24.87;94401.06;5059652;28;1387;-81
2023/03/05 11:42:02;;;;;;;;;;;;;;;20.57;24.88;94400.91;5048908;28;1312;-81
2023/03/05 11:44:46;;;;;;;;;;;;;;;20.57;25.23;94400.91;5055822;28;1898;-81
2023/03/05 11:47:34;;;;;;;;;;;;;;;20.39;25.65;94394.47;5062542;28;1384;-82
2023/03/05 11:50:20;;;;;;;;;;;;;;;20.47;25.53;94389.91;5077201;28;1293;-82
2023/03/05 11:53:06;;;;;;;;;;;;;;;20.18;26.42;94384.25;5054603;28;1133;-80
2023/03/05 11:55:37;;;;;;;;;;;;;;;20.14;26.50;94381.19;5053037;28;1539;-80
2023/03/05 11:58:21;;;;;;;;;;;;;;;20.29;26.32;94378.19;5053973;28;1545;-82
2023/03/05 12:00:47;;;;;;;;;;;;;;;20.36;26.25;94373.63;5063103;28;1364;-79
2023/03/05 12:03:24;;;;;;;;;;;;;;;20.42;26.24;94367.41;5057894;28;1531;-81
2023/03/05 12:05:53;;;;;;;;;;;;;;;20.56;26.22;94362.78;5056574;28;1997;-81
2023/03/05 12:08:24;;;;;;;;;;;;;;;20.60;26.31;94363.97;5049059;28;1648;-81
2023/03/05 12:10:50;;;;;;;;;;;;;;;20.61;26.28;94354.94;5049143;28;1689;-82
2023/03/05 12:13:15;;;;;;;;;;;;;;;20.56;26.45;94356.66;5057129;28;1245;-83
2023/03/05 12:16:02;;;;;;;;;;;;;;;20.63;26.53;94360.03;5055818;28;1250;-81
2023/03/05 12:18:41;;;;;;;;;;;;;;;20.64;26.59;94349.19;5063447;28;1361;-80
2023/03/05 12:21:21;;;;;;;;;;;;;;;20.69;26.81;94343.19;5062608;28;1361;-81
2023/03/05 12:23:54;;;;;;;;;;;;;;;20.69;26.54;94337.03;5060675;28;1363;-81
2023/03/05 12:26:46;;;;;;;;;;;;;;;20.71;26.67;94338.44;5063986;28;1958;-81
2023/03/05 12:29:30;;;;;;;;;;;;;;;20.72;26.85;94332.09;5049984;28;1431;-82
2023/03/05 12:31:56;;;;;;;;;;;;;;;20.55;27.05;94334.53;5060272;28;1540;-82
2023/03/05 12:34:40;;;;;;;;;;;;;;;20.63;26.89;94336.06;5058659;28;1424;-83
2023/03/05 12:37:13;;;;;;;;;;;;;;;20.63;27.10;94330.72;5045654;28;1417;-81
2023/03/05 12:39:41;;;;;;;;;;;;;;;20.45;27.01;94321.66;5054636;28;1248;-82
2023/03/05 12:42:25;;;;;;;;;;;;;;;20.28;27.43;94322.47;5058009;28;1099;-80
2023/03/05 12:45:14;;;;;;;;;;;;;;;20.51;27.32;94327.16;5048164;28;1878;-82
2023/03/05 12:47:46;;;;;;;;;;;;;;;20.83;26.85;94323.34;5053757;28;1355;-82
2023/03/05 12:50:26;;;;;;;;;;;;;;;20.95;26.68;94322.59;5050019;28;1451;-82
2023/03/05 12:52:53;;;;;;;;;;;;;;;20.50;27.08;94325.53;5054164;28;1362;-82
2023/03/05 12:55:25;;;;;;;;;;;;;;;20.15;27.76;94328.72;5055669;28;1336;-81
2023/03/05 12:57:59;;;;;;;;;;;;;;;20.14;27.76;94322.59;5048556;28;1349;-80
2023/03/05 13:00:32;;;;;;;;;;;;;;;20.52;27.23;94318.13;5054938;28;1523;-78
2023/03/05 13:02:59;;;;;;;;;;;;;;;20.87;26.74;94307.72;5048732;28;1418;-79
2023/03/05 13:05:24;;;;;;;;;;;;;;;20.92;26.27;94312.34;5044715;28;1913;-80